sensor_id;sensor_type;location;lat;lon;timestamp;P1;durP1;ratioP1;P2;durP2;ratioP2
69126;SDS011;56688;50.234;19.292;2022-09-25T00:00:50;42.20;;;21.60;;
69126;SDS011;56688;50.234;19.292;2022-09-25T00:03:20;42.90;;;21.50;;
69126;SDS011;56688;50.234;19.292;2022-09-25T00:05:49;46.50;;;21.00;;
69126;SDS011;56688;50.234;19.292;2022-09-25T00:08:17;40.10;;;19.90;;
69126;SDS011;56688;50.234;19.292;2022-09-25T00:10:47;38.20;;;20.40;;
69126;SDS011;56688;50.234;19.292;2022-09-25T00:13:16;38.80;;;19.90;;
69126;SDS011;56688;50.234;19.292;2022-09-25T00:15:46;25.90;;;13.70;;
69126;SDS011;56688;50.234;19.292;2022-09-25T00:18:15;32.00;;;19.00;;
69126;SDS011;56688;50.234;19.292;2022-09-25T00:21:03;30.90;;;13.80;;
69126;SDS011;56688;50.234;19.292;2022-09-25T00:23:31;45.90;;;21.30;;
69126;SDS011;56688;50.234;19.292;2022-09-25T00:26:00;39.90;;;20.90;;
69126;SDS011;56688;50.234;19.292;2022-09-25T00:28:28;35.30;;;19.90;;
69126;SDS011;56688;50.234;19.292;2022-09-25T00:30:55;41.90;;;20.00;;
69126;SDS011;56688;50.234;19.292;2022-09-25T00:33:22;30.20;;;12.90;;
69126;SDS011;56688;50.234;19.292;2022-09-25T00:35:50;23.00;;;13.20;;
69126;SDS011;56688;50.234;19.292;2022-09-25T00:38:16;24.00;;;12.20;;
69126;SDS011;56688;50.234;19.292;2022-09-25T00:40:43;24.30;;;13.30;;
69126;SDS011;56688;50.234;19.292;2022-09-25T00:43:13;43.50;;;21.90;;
69126;SDS011;56688;50.234;19.292;2022-09-25T00:45:41;34.80;;;18.00;;
69126;SDS011;56688;50.234;19.292;2022-09-25T00:48:10;31.30;;;17.20;;
69126;SDS011;56688;50.234;19.292;2022-09-25T00:53:26;22.00;;;10.40;;
69126;SDS011;56688;50.234;19.292;2022-09-25T00:56:02;20.20;;;10.80;;
69126;SDS011;56688;50.234;19.292;2022-09-25T00:58:31;29.80;;;13.50;;
69126;SDS011;56688;50.234;19.292;2022-09-25T01:01:00;24.00;;;14.10;;
69126;SDS011;56688;50.234;19.292;2022-09-25T01:03:27;30.10;;;14.50;;
69126;SDS011;56688;50.234;19.292;2022-09-25T01:05:54;23.10;;;13.60;;
69126;SDS011;56688;50.234;19.292;2022-09-25T01:08:26;24.10;;;13.70;;
69126;SDS011;56688;50.234;19.292;2022-09-25T01:10:56;26.50;;;14.40;;
69126;SDS011;56688;50.234;19.292;2022-09-25T01:13:23;27.10;;;14.40;;
69126;SDS011;56688;50.234;19.292;2022-09-25T01:26:58;38.30;;;17.40;;
69126;SDS011;56688;50.234;19.292;2022-09-25T01:29:30;26.00;;;14.50;;
69126;SDS011;56688;50.234;19.292;2022-09-25T01:32:09;24.20;;;14.10;;
69126;SDS011;56688;50.234;19.292;2022-09-25T01:34:47;24.80;;;14.90;;
69126;SDS011;56688;50.234;19.292;2022-09-25T01:42:40;22.70;;;13.10;;
69126;SDS011;56688;50.234;19.292;2022-09-25T01:45:13;22.40;;;13.10;;
69126;SDS011;56688;50.234;19.292;2022-09-25T01:47:46;22.50;;;12.40;;
69126;SDS011;56688;50.234;19.292;2022-09-25T01:50:18;22.60;;;12.50;;
69126;SDS011;56688;50.234;19.292;2022-09-25T01:52:52;22.90;;;13.10;;
69126;SDS011;56688;50.234;19.292;2022-09-25T01:55:28;22.90;;;12.70;;
69126;SDS011;56688;50.234;19.292;2022-09-25T01:58:03;20.80;;;12.90;;
69126;SDS011;56688;50.234;19.292;2022-09-25T02:00:33;17.80;;;12.00;;
69126;SDS011;56688;50.234;19.292;2022-09-25T02:03:08;21.80;;;12.30;;
69126;SDS011;56688;50.234;19.292;2022-09-25T02:05:42;19.40;;;12.50;;
69126;SDS011;56688;50.234;19.292;2022-09-25T02:08:17;19.70;;;12.90;;
69126;SDS011;56688;50.234;19.292;2022-09-25T02:10:49;19.20;;;12.10;;
69126;SDS011;56688;50.234;19.292;2022-09-25T02:13:22;17.80;;;11.10;;
69126;SDS011;56688;50.234;19.292;2022-09-25T02:15:54;22.30;;;12.30;;
69126;SDS011;56688;50.234;19.292;2022-09-25T02:18:23;18.20;;;11.40;;
69126;SDS011;56688;50.234;19.292;2022-09-25T02:21:11;20.80;;;11.90;;
69126;SDS011;56688;50.234;19.292;2022-09-25T02:23:56;18.20;;;11.30;;
69126;SDS011;56688;50.234;19.292;2022-09-25T02:26:29;17.40;;;11.20;;
69126;SDS011;56688;50.234;19.292;2022-09-25T02:29:13;20.90;;;12.00;;
69126;SDS011;56688;50.234;19.292;2022-09-25T02:31:42;17.90;;;11.50;;
69126;SDS011;56688;50.234;19.292;2022-09-25T02:34:14;22.50;;;11.10;;
69126;SDS011;56688;50.234;19.292;2022-09-25T02:36:42;19.50;;;11.80;;
69126;SDS011;56688;50.234;19.292;2022-09-25T02:39:11;17.00;;;11.30;;
69126;SDS011;56688;50.234;19.292;2022-09-25T02:41:46;18.40;;;10.80;;
69126;SDS011;56688;50.234;19.292;2022-09-25T02:44:33;17.90;;;10.50;;
69126;SDS011;56688;50.234;19.292;2022-09-25T02:49:46;16.70;;;11.30;;
69126;SDS011;56688;50.234;19.292;2022-09-25T02:52:26;22.90;;;11.30;;
69126;SDS011;56688;50.234;19.292;2022-09-25T02:57:37;21.20;;;12.70;;
69126;SDS011;56688;50.234;19.292;2022-09-25T03:00:11;23.00;;;11.50;;
69126;SDS011;56688;50.234;19.292;2022-09-25T03:02:38;20.30;;;11.60;;
69126;SDS011;56688;50.234;19.292;2022-09-25T03:05:12;23.50;;;13.40;;
69126;SDS011;56688;50.234;19.292;2022-09-25T03:07:41;19.30;;;11.50;;
69126;SDS011;56688;50.234;19.292;2022-09-25T03:10:24;20.80;;;11.10;;
69126;SDS011;56688;50.234;19.292;2022-09-25T03:12:54;21.10;;;11.10;;
69126;SDS011;56688;50.234;19.292;2022-09-25T03:15:21;17.90;;;11.00;;
69126;SDS011;56688;50.234;19.292;2022-09-25T03:17:49;9.90;;;6.60;;
69126;SDS011;56688;50.234;19.292;2022-09-25T03:20:17;19.90;;;11.10;;
69126;SDS011;56688;50.234;19.292;2022-09-25T03:22:44;15.20;;;7.30;;
69126;SDS011;56688;50.234;19.292;2022-09-25T03:25:11;17.10;;;10.80;;
69126;SDS011;56688;50.234;19.292;2022-09-25T03:27:38;18.30;;;11.40;;
69126;SDS011;56688;50.234;19.292;2022-09-25T03:30:05;19.30;;;11.60;;
69126;SDS011;56688;50.234;19.292;2022-09-25T03:32:33;21.30;;;12.20;;
69126;SDS011;56688;50.234;19.292;2022-09-25T03:35:00;20.90;;;11.90;;
69126;SDS011;56688;50.234;19.292;2022-09-25T03:37:26;13.70;;;8.00;;
69126;SDS011;56688;50.234;19.292;2022-09-25T03:39:53;13.90;;;8.50;;
69126;SDS011;56688;50.234;19.292;2022-09-25T03:42:20;21.90;;;12.60;;
69126;SDS011;56688;50.234;19.292;2022-09-25T03:44:47;16.30;;;10.40;;
69126;SDS011;56688;50.234;19.292;2022-09-25T03:47:13;22.40;;;12.30;;
69126;SDS011;56688;50.234;19.292;2022-09-25T03:49:40;22.40;;;12.30;;
69126;SDS011;56688;50.234;19.292;2022-09-25T03:52:07;19.10;;;11.30;;
69126;SDS011;56688;50.234;19.292;2022-09-25T03:54:38;20.80;;;11.70;;
69126;SDS011;56688;50.234;19.292;2022-09-25T03:57:05;18.80;;;11.30;;
69126;SDS011;56688;50.234;19.292;2022-09-25T03:59:32;17.40;;;9.60;;
69126;SDS011;56688;50.234;19.292;2022-09-25T04:01:59;20.80;;;9.10;;
69126;SDS011;56688;50.234;19.292;2022-09-25T04:04:27;17.80;;;10.50;;
69126;SDS011;56688;50.234;19.292;2022-09-25T04:06:55;15.90;;;8.60;;
69126;SDS011;56688;50.234;19.292;2022-09-25T04:09:22;19.30;;;11.10;;
69126;SDS011;56688;50.234;19.292;2022-09-25T04:11:49;21.60;;;11.60;;
69126;SDS011;56688;50.234;19.292;2022-09-25T04:14:16;17.50;;;11.20;;
69126;SDS011;56688;50.234;19.292;2022-09-25T04:16:43;21.90;;;12.00;;
69126;SDS011;56688;50.234;19.292;2022-09-25T04:19:11;21.50;;;11.50;;
69126;SDS011;56688;50.234;19.292;2022-09-25T04:21:38;17.90;;;10.10;;
69126;SDS011;56688;50.234;19.292;2022-09-25T04:24:05;14.70;;;9.00;;
69126;SDS011;56688;50.234;19.292;2022-09-25T04:26:47;17.40;;;9.60;;
69126;SDS011;56688;50.234;19.292;2022-09-25T04:29:18;21.20;;;11.60;;
69126;SDS011;56688;50.234;19.292;2022-09-25T04:31:46;27.50;;;12.80;;
69126;SDS011;56688;50.234;19.292;2022-09-25T04:34:33;19.60;;;12.40;;
69126;SDS011;56688;50.234;19.292;2022-09-25T04:37:00;18.50;;;12.10;;
69126;SDS011;56688;50.234;19.292;2022-09-25T04:39:27;19.20;;;12.50;;
69126;SDS011;56688;50.234;19.292;2022-09-25T04:41:54;17.50;;;9.70;;
69126;SDS011;56688;50.234;19.292;2022-09-25T04:44:21;19.90;;;11.10;;
69126;SDS011;56688;50.234;19.292;2022-09-25T04:46:47;12.10;;;7.50;;
69126;SDS011;56688;50.234;19.292;2022-09-25T04:49:14;20.40;;;12.50;;
69126;SDS011;56688;50.234;19.292;2022-09-25T04:51:41;18.40;;;11.70;;
69126;SDS011;56688;50.234;19.292;2022-09-25T04:54:08;18.60;;;11.50;;
69126;SDS011;56688;50.234;19.292;2022-09-25T04:56:35;20.20;;;11.40;;
69126;SDS011;56688;50.234;19.292;2022-09-25T04:59:01;18.70;;;11.80;;
69126;SDS011;56688;50.234;19.292;2022-09-25T05:01:28;19.70;;;11.80;;
69126;SDS011;56688;50.234;19.292;2022-09-25T05:03:55;16.70;;;9.80;;
69126;SDS011;56688;50.234;19.292;2022-09-25T05:06:22;12.20;;;7.60;;
69126;SDS011;56688;50.234;19.292;2022-09-25T05:08:49;12.90;;;7.40;;
69126;SDS011;56688;50.234;19.292;2022-09-25T05:11:16;21.40;;;11.50;;
69126;SDS011;56688;50.234;19.292;2022-09-25T05:13:43;21.80;;;11.50;;
69126;SDS011;56688;50.234;19.292;2022-09-25T05:16:12;21.90;;;11.40;;
69126;SDS011;56688;50.234;19.292;2022-09-25T05:18:39;26.40;;;14.10;;
69126;SDS011;56688;50.234;19.292;2022-09-25T05:21:06;28.40;;;15.30;;
69126;SDS011;56688;50.234;19.292;2022-09-25T05:23:32;26.70;;;13.70;;
69126;SDS011;56688;50.234;19.292;2022-09-25T05:25:59;26.90;;;13.50;;
69126;SDS011;56688;50.234;19.292;2022-09-25T05:28:28;37.70;;;17.10;;
69126;SDS011;56688;50.234;19.292;2022-09-25T05:30:58;31.20;;;15.20;;
69126;SDS011;56688;50.234;19.292;2022-09-25T05:33:30;36.50;;;16.50;;
69126;SDS011;56688;50.234;19.292;2022-09-25T05:36:01;45.60;;;19.40;;
69126;SDS011;56688;50.234;19.292;2022-09-25T05:38:30;25.00;;;13.70;;
69126;SDS011;56688;50.234;19.292;2022-09-25T05:41:00;28.70;;;13.50;;
69126;SDS011;56688;50.234;19.292;2022-09-25T05:43:30;26.30;;;11.60;;
69126;SDS011;56688;50.234;19.292;2022-09-25T05:45:58;27.30;;;13.30;;
69126;SDS011;56688;50.234;19.292;2022-09-25T05:48:26;23.70;;;13.30;;
69126;SDS011;56688;50.234;19.292;2022-09-25T05:50:54;25.60;;;13.50;;
69126;SDS011;56688;50.234;19.292;2022-09-25T05:53:22;18.50;;;10.10;;
69126;SDS011;56688;50.234;19.292;2022-09-25T05:55:54;23.70;;;12.10;;
69126;SDS011;56688;50.234;19.292;2022-09-25T05:58:25;33.50;;;17.10;;
69126;SDS011;56688;50.234;19.292;2022-09-25T06:00:53;26.90;;;14.10;;
69126;SDS011;56688;50.234;19.292;2022-09-25T06:03:20;27.10;;;14.50;;
69126;SDS011;56688;50.234;19.292;2022-09-25T06:05:48;23.60;;;13.20;;
69126;SDS011;56688;50.234;19.292;2022-09-25T06:08:15;28.20;;;14.40;;
69126;SDS011;56688;50.234;19.292;2022-09-25T06:10:41;28.00;;;15.60;;
69126;SDS011;56688;50.234;19.292;2022-09-25T06:13:09;35.10;;;18.10;;
69126;SDS011;56688;50.234;19.292;2022-09-25T06:15:36;23.20;;;13.80;;
69126;SDS011;56688;50.234;19.292;2022-09-25T06:18:07;28.00;;;15.70;;
69126;SDS011;56688;50.234;19.292;2022-09-25T06:20:34;28.70;;;16.20;;
69126;SDS011;56688;50.234;19.292;2022-09-25T06:23:01;33.20;;;16.90;;
69126;SDS011;56688;50.234;19.292;2022-09-25T06:25:29;29.10;;;17.90;;
69126;SDS011;56688;50.234;19.292;2022-09-25T06:27:59;37.20;;;22.80;;
69126;SDS011;56688;50.234;19.292;2022-09-25T06:30:27;37.50;;;22.10;;
69126;SDS011;56688;50.234;19.292;2022-09-25T06:33:00;42.90;;;24.30;;
69126;SDS011;56688;50.234;19.292;2022-09-25T06:35:32;35.30;;;21.20;;
69126;SDS011;56688;50.234;19.292;2022-09-25T06:38:01;40.20;;;20.90;;
69126;SDS011;56688;50.234;19.292;2022-09-25T06:40:29;22.90;;;14.30;;
69126;SDS011;56688;50.234;19.292;2022-09-25T06:42:57;28.80;;;16.20;;
69126;SDS011;56688;50.234;19.292;2022-09-25T06:45:28;38.00;;;19.20;;
69126;SDS011;56688;50.234;19.292;2022-09-25T06:47:59;33.40;;;19.90;;
69126;SDS011;56688;50.234;19.292;2022-09-25T06:50:28;35.70;;;19.50;;
69126;SDS011;56688;50.234;19.292;2022-09-25T06:53:01;32.80;;;20.70;;
69126;SDS011;56688;50.234;19.292;2022-09-25T06:55:29;24.50;;;14.70;;
69126;SDS011;56688;50.234;19.292;2022-09-25T06:58:01;22.50;;;13.60;;
69126;SDS011;56688;50.234;19.292;2022-09-25T07:00:28;30.60;;;17.30;;
69126;SDS011;56688;50.234;19.292;2022-09-25T07:02:56;35.90;;;19.00;;
69126;SDS011;56688;50.234;19.292;2022-09-25T07:05:39;35.80;;;20.20;;
69126;SDS011;56688;50.234;19.292;2022-09-25T07:08:08;32.80;;;19.00;;
69126;SDS011;56688;50.234;19.292;2022-09-25T07:10:34;34.30;;;20.40;;
69126;SDS011;56688;50.234;19.292;2022-09-25T07:13:01;31.50;;;18.30;;
69126;SDS011;56688;50.234;19.292;2022-09-25T07:15:29;38.60;;;21.20;;
69126;SDS011;56688;50.234;19.292;2022-09-25T07:17:56;37.90;;;20.70;;
69126;SDS011;56688;50.234;19.292;2022-09-25T07:20:23;30.50;;;19.00;;
69126;SDS011;56688;50.234;19.292;2022-09-25T07:22:50;36.00;;;18.70;;
69126;SDS011;56688;50.234;19.292;2022-09-25T07:25:19;27.80;;;17.20;;
69126;SDS011;56688;50.234;19.292;2022-09-25T07:27:46;31.80;;;19.50;;
69126;SDS011;56688;50.234;19.292;2022-09-25T07:30:13;26.40;;;17.30;;
69126;SDS011;56688;50.234;19.292;2022-09-25T07:32:42;28.00;;;17.10;;
69126;SDS011;56688;50.234;19.292;2022-09-25T07:35:10;26.90;;;17.90;;
69126;SDS011;56688;50.234;19.292;2022-09-25T07:37:37;29.60;;;17.40;;
69126;SDS011;56688;50.234;19.292;2022-09-25T07:40:03;31.20;;;19.90;;
69126;SDS011;56688;50.234;19.292;2022-09-25T07:42:31;37.20;;;22.20;;
69126;SDS011;56688;50.234;19.292;2022-09-25T07:44:58;39.10;;;22.90;;
69126;SDS011;56688;50.234;19.292;2022-09-25T07:47:25;26.70;;;18.10;;
69126;SDS011;56688;50.234;19.292;2022-09-25T07:49:51;27.70;;;17.50;;
69126;SDS011;56688;50.234;19.292;2022-09-25T07:52:18;23.40;;;13.70;;
69126;SDS011;56688;50.234;19.292;2022-09-25T07:54:45;22.50;;;14.40;;
69126;SDS011;56688;50.234;19.292;2022-09-25T07:57:12;23.30;;;12.90;;
69126;SDS011;56688;50.234;19.292;2022-09-25T07:59:39;19.90;;;12.40;;
69126;SDS011;56688;50.234;19.292;2022-09-25T08:02:06;21.80;;;13.00;;
69126;SDS011;56688;50.234;19.292;2022-09-25T08:04:33;18.90;;;11.90;;
69126;SDS011;56688;50.234;19.292;2022-09-25T08:07:00;21.10;;;12.10;;
69126;SDS011;56688;50.234;19.292;2022-09-25T08:09:26;19.40;;;12.70;;
69126;SDS011;56688;50.234;19.292;2022-09-25T08:11:53;16.50;;;11.80;;
69126;SDS011;56688;50.234;19.292;2022-09-25T08:14:20;24.20;;;12.90;;
69126;SDS011;56688;50.234;19.292;2022-09-25T08:16:52;22.20;;;12.90;;
69126;SDS011;56688;50.234;19.292;2022-09-25T08:19:21;20.20;;;11.20;;
69126;SDS011;56688;50.234;19.292;2022-09-25T08:21:49;22.40;;;14.10;;
69126;SDS011;56688;50.234;19.292;2022-09-25T08:24:16;21.30;;;14.20;;
69126;SDS011;56688;50.234;19.292;2022-09-25T08:26:43;21.70;;;14.00;;
69126;SDS011;56688;50.234;19.292;2022-09-25T08:29:10;19.50;;;12.40;;
69126;SDS011;56688;50.234;19.292;2022-09-25T08:31:37;23.50;;;12.80;;
69126;SDS011;56688;50.234;19.292;2022-09-25T08:34:05;20.90;;;13.30;;
69126;SDS011;56688;50.234;19.292;2022-09-25T08:36:53;25.60;;;15.70;;
69126;SDS011;56688;50.234;19.292;2022-09-25T08:39:20;22.40;;;14.20;;
69126;SDS011;56688;50.234;19.292;2022-09-25T08:41:48;22.50;;;14.50;;
69126;SDS011;56688;50.234;19.292;2022-09-25T08:44:20;25.90;;;15.30;;
69126;SDS011;56688;50.234;19.292;2022-09-25T08:46:51;25.40;;;15.70;;
69126;SDS011;56688;50.234;19.292;2022-09-25T08:49:47;19.40;;;12.90;;
69126;SDS011;56688;50.234;19.292;2022-09-25T08:52:25;20.20;;;12.40;;
69126;SDS011;56688;50.234;19.292;2022-09-25T08:54:52;23.70;;;15.00;;
69126;SDS011;56688;50.234;19.292;2022-09-25T08:57:29;24.90;;;15.20;;
69126;SDS011;56688;50.234;19.292;2022-09-25T08:59:58;21.90;;;14.50;;
69126;SDS011;56688;50.234;19.292;2022-09-25T09:02:35;21.00;;;13.90;;
69126;SDS011;56688;50.234;19.292;2022-09-25T09:05:12;23.20;;;14.40;;
69126;SDS011;56688;50.234;19.292;2022-09-25T09:07:45;18.90;;;12.10;;
69126;SDS011;56688;50.234;19.292;2022-09-25T09:16:04;20.60;;;13.40;;
69126;SDS011;56688;50.234;19.292;2022-09-25T09:18:36;20.80;;;13.10;;
69126;SDS011;56688;50.234;19.292;2022-09-25T09:23:34;17.10;;;11.50;;
69126;SDS011;56688;50.234;19.292;2022-09-25T09:26:14;17.70;;;11.50;;
69126;SDS011;56688;50.234;19.292;2022-09-25T09:31:25;21.00;;;12.60;;
69126;SDS011;56688;50.234;19.292;2022-09-25T09:39:44;18.80;;;12.10;;
69126;SDS011;56688;50.234;19.292;2022-09-25T09:42:26;16.80;;;11.50;;
69126;SDS011;56688;50.234;19.292;2022-09-25T09:50:50;16.20;;;11.00;;
69126;SDS011;56688;50.234;19.292;2022-09-25T09:56:09;19.40;;;11.80;;
69126;SDS011;56688;50.234;19.292;2022-09-25T09:58:48;17.30;;;10.80;;
69126;SDS011;56688;50.234;19.292;2022-09-25T10:01:20;18.30;;;11.20;;
69126;SDS011;56688;50.234;19.292;2022-09-25T10:06:38;42.50;;;22.60;;
69126;SDS011;56688;50.234;19.292;2022-09-25T10:09:11;34.00;;;19.20;;
69126;SDS011;56688;50.234;19.292;2022-09-25T10:11:41;22.30;;;13.10;;
69126;SDS011;56688;50.234;19.292;2022-09-25T10:14:15;19.70;;;12.80;;
69126;SDS011;56688;50.234;19.292;2022-09-25T10:16:47;18.60;;;12.60;;
69126;SDS011;56688;50.234;19.292;2022-09-25T10:19:17;19.60;;;13.60;;
69126;SDS011;56688;50.234;19.292;2022-09-25T10:21:50;21.60;;;13.60;;
69126;SDS011;56688;50.234;19.292;2022-09-25T10:30:16;14.20;;;11.40;;
69126;SDS011;56688;50.234;19.292;2022-09-25T10:41:09;16.90;;;10.80;;
69126;SDS011;56688;50.234;19.292;2022-09-25T10:49:19;14.90;;;11.40;;
69126;SDS011;56688;50.234;19.292;2022-09-25T10:52:05;14.00;;;10.00;;
69126;SDS011;56688;50.234;19.292;2022-09-25T10:54:33;14.80;;;10.50;;
69126;SDS011;56688;50.234;19.292;2022-09-25T10:57:30;14.70;;;10.50;;
69126;SDS011;56688;50.234;19.292;2022-09-25T11:00:00;11.40;;;7.50;;
69126;SDS011;56688;50.234;19.292;2022-09-25T11:02:33;10.10;;;6.80;;
69126;SDS011;56688;50.234;19.292;2022-09-25T11:05:06;8.70;;;6.10;;
69126;SDS011;56688;50.234;19.292;2022-09-25T11:10:26;10.30;;;7.70;;
69126;SDS011;56688;50.234;19.292;2022-09-25T11:12:56;10.90;;;7.60;;
69126;SDS011;56688;50.234;19.292;2022-09-25T11:15:25;12.20;;;10.00;;
69126;SDS011;56688;50.234;19.292;2022-09-25T11:17:54;18.10;;;13.00;;
69126;SDS011;56688;50.234;19.292;2022-09-25T11:20:24;15.20;;;11.40;;
69126;SDS011;56688;50.234;19.292;2022-09-25T11:30:55;11.00;;;7.90;;
69126;SDS011;56688;50.234;19.292;2022-09-25T11:33:32;14.20;;;9.60;;
69126;SDS011;56688;50.234;19.292;2022-09-25T11:36:05;10.80;;;7.80;;
69126;SDS011;56688;50.234;19.292;2022-09-25T11:38:52;8.70;;;6.60;;
69126;SDS011;56688;50.234;19.292;2022-09-25T11:44:16;11.00;;;7.90;;
69126;SDS011;56688;50.234;19.292;2022-09-25T11:49:44;9.80;;;7.00;;
69126;SDS011;56688;50.234;19.292;2022-09-25T12:00:31;8.80;;;6.80;;
69126;SDS011;56688;50.234;19.292;2022-09-25T12:05:50;9.10;;;6.90;;
69126;SDS011;56688;50.234;19.292;2022-09-25T12:14:07;8.30;;;6.60;;
69126;SDS011;56688;50.234;19.292;2022-09-25T12:30:18;8.20;;;6.30;;
69126;SDS011;56688;50.234;19.292;2022-09-25T12:35:34;7.80;;;6.00;;
69126;SDS011;56688;50.234;19.292;2022-09-25T12:38:17;7.90;;;5.90;;
69126;SDS011;56688;50.234;19.292;2022-09-25T12:40:48;7.60;;;5.50;;
69126;SDS011;56688;50.234;19.292;2022-09-25T12:43:26;8.30;;;6.20;;
69126;SDS011;56688;50.234;19.292;2022-09-25T12:46:01;9.20;;;6.30;;
69126;SDS011;56688;50.234;19.292;2022-09-25T12:48:38;7.60;;;6.20;;
69126;SDS011;56688;50.234;19.292;2022-09-25T12:56:26;7.80;;;6.10;;
69126;SDS011;56688;50.234;19.292;2022-09-25T13:04:01;11.30;;;7.20;;
69126;SDS011;56688;50.234;19.292;2022-09-25T13:06:50;13.10;;;9.20;;
69126;SDS011;56688;50.234;19.292;2022-09-25T13:09:31;8.50;;;6.70;;
69126;SDS011;56688;50.234;19.292;2022-09-25T13:12:08;12.60;;;8.50;;
69126;SDS011;56688;50.234;19.292;2022-09-25T13:14:49;12.40;;;7.30;;
69126;SDS011;56688;50.234;19.292;2022-09-25T13:17:21;9.80;;;7.10;;
69126;SDS011;56688;50.234;19.292;2022-09-25T13:19:49;8.00;;;6.30;;
69126;SDS011;56688;50.234;19.292;2022-09-25T13:22:18;9.90;;;6.60;;
69126;SDS011;56688;50.234;19.292;2022-09-25T13:24:51;11.10;;;8.60;;
69126;SDS011;56688;50.234;19.292;2022-09-25T13:27:29;10.40;;;7.70;;
69126;SDS011;56688;50.234;19.292;2022-09-25T13:30:05;9.80;;;7.20;;
69126;SDS011;56688;50.234;19.292;2022-09-25T13:32:48;9.40;;;7.20;;
69126;SDS011;56688;50.234;19.292;2022-09-25T13:35:19;9.60;;;7.50;;
69126;SDS011;56688;50.234;19.292;2022-09-25T13:37:48;11.00;;;7.20;;
69126;SDS011;56688;50.234;19.292;2022-09-25T13:40:18;15.00;;;7.90;;
69126;SDS011;56688;50.234;19.292;2022-09-25T13:45:46;8.10;;;6.30;;
69126;SDS011;56688;50.234;19.292;2022-09-25T13:51:40;16.60;;;8.30;;
69126;SDS011;56688;50.234;19.292;2022-09-25T13:53:52;12.50;;;6.70;;
69126;SDS011;56688;50.234;19.292;2022-09-25T13:56:25;15.30;;;7.60;;
69126;SDS011;56688;50.234;19.292;2022-09-25T14:01:39;6.80;;;4.80;;
69126;SDS011;56688;50.234;19.292;2022-09-25T14:04:08;17.40;;;7.70;;
69126;SDS011;56688;50.234;19.292;2022-09-25T14:06:42;11.80;;;7.20;;
69126;SDS011;56688;50.234;19.292;2022-09-25T14:09:14;9.80;;;6.60;;
69126;SDS011;56688;50.234;19.292;2022-09-25T14:14:26;8.70;;;5.20;;
69126;SDS011;56688;50.234;19.292;2022-09-25T14:16:58;12.90;;;6.40;;
69126;SDS011;56688;50.234;19.292;2022-09-25T14:19:29;8.90;;;5.70;;
69126;SDS011;56688;50.234;19.292;2022-09-25T14:22:00;8.20;;;4.60;;
69126;SDS011;56688;50.234;19.292;2022-09-25T14:24:30;5.60;;;4.60;;
69126;SDS011;56688;50.234;19.292;2022-09-25T14:26:58;5.50;;;4.30;;
69126;SDS011;56688;50.234;19.292;2022-09-25T14:29:29;7.00;;;4.40;;
69126;SDS011;56688;50.234;19.292;2022-09-25T14:35:25;10.90;;;5.70;;
69126;SDS011;56688;50.234;19.292;2022-09-25T14:45:57;9.70;;;6.40;;
69126;SDS011;56688;50.234;19.292;2022-09-25T14:48:27;11.70;;;7.60;;
69126;SDS011;56688;50.234;19.292;2022-09-25T14:51:02;12.40;;;7.40;;
69126;SDS011;56688;50.234;19.292;2022-09-25T14:53:36;10.40;;;7.10;;
69126;SDS011;56688;50.234;19.292;2022-09-25T14:56:07;9.90;;;6.20;;
69126;SDS011;56688;50.234;19.292;2022-09-25T14:58:41;13.00;;;7.70;;
69126;SDS011;56688;50.234;19.292;2022-09-25T15:03:48;11.00;;;7.50;;
69126;SDS011;56688;50.234;19.292;2022-09-25T15:06:24;16.70;;;8.80;;
69126;SDS011;56688;50.234;19.292;2022-09-25T15:08:53;13.40;;;8.80;;
69126;SDS011;56688;50.234;19.292;2022-09-25T15:11:23;19.20;;;9.60;;
69126;SDS011;56688;50.234;19.292;2022-09-25T15:13:52;14.50;;;8.00;;
69126;SDS011;56688;50.234;19.292;2022-09-25T15:16:21;16.10;;;8.40;;
69126;SDS011;56688;50.234;19.292;2022-09-25T15:19:12;12.70;;;8.20;;
69126;SDS011;56688;50.234;19.292;2022-09-25T15:21:43;8.30;;;6.30;;
69126;SDS011;56688;50.234;19.292;2022-09-25T15:24:12;13.10;;;7.80;;
69126;SDS011;56688;50.234;19.292;2022-09-25T15:26:45;9.70;;;5.90;;
69126;SDS011;56688;50.234;19.292;2022-09-25T15:29:16;10.50;;;7.20;;
69126;SDS011;56688;50.234;19.292;2022-09-25T15:31:46;10.80;;;7.10;;
69126;SDS011;56688;50.234;19.292;2022-09-25T15:34:25;13.10;;;7.10;;
69126;SDS011;56688;50.234;19.292;2022-09-25T15:39:43;9.90;;;6.50;;
69126;SDS011;56688;50.234;19.292;2022-09-25T15:42:11;10.00;;;7.40;;
69126;SDS011;56688;50.234;19.292;2022-09-25T15:44:39;9.00;;;6.60;;
69126;SDS011;56688;50.234;19.292;2022-09-25T15:47:22;12.00;;;7.60;;
69126;SDS011;56688;50.234;19.292;2022-09-25T15:50:16;14.70;;;8.20;;
69126;SDS011;56688;50.234;19.292;2022-09-25T15:55:17;20.50;;;10.40;;
69126;SDS011;56688;50.234;19.292;2022-09-25T15:57:45;14.30;;;9.20;;
69126;SDS011;56688;50.234;19.292;2022-09-25T16:00:16;11.70;;;8.00;;
69126;SDS011;56688;50.234;19.292;2022-09-25T16:03:04;12.80;;;7.90;;
69126;SDS011;56688;50.234;19.292;2022-09-25T16:08:27;8.80;;;7.00;;
69126;SDS011;56688;50.234;19.292;2022-09-25T16:13:43;10.00;;;7.30;;
69126;SDS011;56688;50.234;19.292;2022-09-25T16:18:57;11.30;;;7.80;;
69126;SDS011;56688;50.234;19.292;2022-09-25T16:24:02;11.10;;;8.60;;
69126;SDS011;56688;50.234;19.292;2022-09-25T16:26:34;13.00;;;8.50;;
69126;SDS011;56688;50.234;19.292;2022-09-25T16:29:06;13.70;;;8.20;;
69126;SDS011;56688;50.234;19.292;2022-09-25T16:31:43;12.20;;;8.80;;
69126;SDS011;56688;50.234;19.292;2022-09-25T16:34:20;13.60;;;8.40;;
69126;SDS011;56688;50.234;19.292;2022-09-25T16:36:53;12.50;;;8.20;;
69126;SDS011;56688;50.234;19.292;2022-09-25T16:39:25;10.80;;;8.40;;
69126;SDS011;56688;50.234;19.292;2022-09-25T16:41:55;12.70;;;9.00;;
69126;SDS011;56688;50.234;19.292;2022-09-25T16:49:42;12.00;;;7.40;;
69126;SDS011;56688;50.234;19.292;2022-09-25T16:52:15;17.30;;;9.00;;
69126;SDS011;56688;50.234;19.292;2022-09-25T16:54:47;18.50;;;11.60;;
69126;SDS011;56688;50.234;19.292;2022-09-25T16:57:20;13.80;;;9.90;;
69126;SDS011;56688;50.234;19.292;2022-09-25T16:59:49;18.00;;;9.50;;
69126;SDS011;56688;50.234;19.292;2022-09-25T17:02:20;14.80;;;8.40;;
69126;SDS011;56688;50.234;19.292;2022-09-25T17:04:51;22.10;;;12.20;;
69126;SDS011;56688;50.234;19.292;2022-09-25T17:07:18;19.10;;;10.40;;
69126;SDS011;56688;50.234;19.292;2022-09-25T17:09:45;25.30;;;13.10;;
69126;SDS011;56688;50.234;19.292;2022-09-25T17:12:15;72.00;;;35.30;;
69126;SDS011;56688;50.234;19.292;2022-09-25T17:14:46;54.80;;;27.80;;
69126;SDS011;56688;50.234;19.292;2022-09-25T17:17:18;32.60;;;16.30;;
69126;SDS011;56688;50.234;19.292;2022-09-25T17:19:48;24.40;;;12.90;;
69126;SDS011;56688;50.234;19.292;2022-09-25T17:22:16;73.80;;;31.80;;
69126;SDS011;56688;50.234;19.292;2022-09-25T17:24:43;57.70;;;23.20;;
69126;SDS011;56688;50.234;19.292;2022-09-25T17:27:10;53.20;;;22.60;;
69126;SDS011;56688;50.234;19.292;2022-09-25T17:29:39;22.90;;;15.40;;
69126;SDS011;56688;50.234;19.292;2022-09-25T17:32:10;23.80;;;15.50;;
69126;SDS011;56688;50.234;19.292;2022-09-25T17:34:39;27.30;;;16.40;;